Fargo, North Dakota
Current Conditions -  °F | °C
As of 7:53 AM on Thursday 23 Oct 2014 (Local Time) from KFAR Reporting Station
Clear Clear  
Wind Chill: 38°   Ceiling: Unl
Heat Index: 43°   Visibility: 10mi
Dew Point: 39°   Wind: 8mph
Humidity: 86%   Direction: 170°S
Pressure: 29.91"   Gusts: NA
Location:  46.88°N, 96.78°W
Report Text: KFAR 231253Z 17007KT 10SM CLR 06/04 A2991 RMK AO2 SLP133 T00610039
Loading
Personal Weather Stations






























Interactive Weather Map
Tropical Storm Tracking
New forecast layout! Learn more

10-Day Weather Forecast

Advertisements
Track Severe Weather on mobile